BVY weather

Beverly Municipal Airport
Beverly, Massachusetts, United States

Public forecast

Using degrees Fahrenheit for public forecast. Weather courtesy of forecast.io.

METAR (pilot weather report)

Retrieved 2019/07/17 10:53 UTC (56 minutes ago):

KBVY 171053Z 24007KT 10SM BKN100 25/19 A2991 RMK AO2 SLP122 T02500194

TAF (pilot weather forecast)

Forecast is more than 12 hours old.

Closest forecast is General Edward Lawrence Logan International Airport, 13.8 nm (25.5 km) SSW. Retrieved 2019/07/16 00:30 UTC (1 day ago):

TAF KBOS 162322Z 1700/1806 19010KT P6SM BKN250 FM170700 22010KT P6SM SCT250 FM171500 24010KT P6SM VCSH BKN070 FM171800 23012KT 6SM -RA BR VCTS BKN050CB